Time;durP1;ratioP1;P1;durP2;ratioP2;P2;SDS_P1;SDS_P2;PMS_P1;PMS_P2;Temp;Humidity;BMP_temperature;BMP_pressure;BME280_temperature;BME280_humidity;BME280_pressure;Samples;Min_cycle;Max_cycle;Signal;HPM_P1;HPM_P2
2022/03/17 00:01:54;;;;;;;1.27;1.17;;;7.60;99.90;;;;;;4935815;29;20478;-76
2022/03/17 00:04:22;;;;;;;3.30;1.20;;;7.50;99.90;;;;;;4936435;29;20462;-76
2022/03/17 00:06:48;;;;;;;1.40;1.00;;;7.50;99.90;;;;;;4935734;29;20451;-76
2022/03/17 00:09:16;;;;;;;0.83;0.83;;;7.50;99.90;;;;;;4935723;29;20482;-76
2022/03/17 00:11:44;;;;;;;0.80;0.70;;;7.50;99.90;;;;;;4935769;29;20451;-76
2022/03/17 00:14:11;;;;;;;4.80;0.80;;;7.50;99.90;;;;;;4935700;29;20447;-76
2022/03/17 00:16:38;;;;;;;1.63;1.53;;;7.40;99.90;;;;;;4935706;29;20510;-76
2022/03/17 00:19:07;;;;;;;1.57;1.47;;;7.40;99.90;;;;;;4935657;29;20562;-76
2022/03/17 00:21:35;;;;;;;6.03;0.60;;;7.40;99.90;;;;;;4935620;29;20455;-76
2022/03/17 00:24:02;;;;;;;0.67;0.60;;;7.40;99.90;;;;;;4938731;29;20970;-76
2022/03/17 00:26:30;;;;;;;0.63;0.63;;;7.30;99.90;;;;;;4939152;29;20447;-77
2022/03/17 00:28:56;;;;;;;1.50;1.03;;;7.30;99.90;;;;;;4938689;29;21014;-76
2022/03/17 00:31:23;;;;;;;1.07;0.80;;;7.30;99.90;;;;;;4939053;29;20447;-76
2022/03/17 00:33:50;;;;;;;0.40;0.40;;;7.20;99.90;;;;;;4938524;29;20854;-76
2022/03/17 00:36:17;;;;;;;1.23;1.13;;;7.20;99.90;;;;;;4938987;29;20447;-75
2022/03/17 00:38:43;;;;;;;2.40;0.73;;;7.20;99.90;;;;;;4938642;29;20844;-76
2022/03/17 00:41:10;;;;;;;0.67;0.60;;;7.20;99.90;;;;;;4938950;29;20439;-76
2022/03/17 00:43:38;;;;;;;0.70;0.40;;;7.20;99.90;;;;;;4938867;29;20451;-78
2022/03/17 00:46:05;;;;;;;1.63;0.67;;;7.10;99.90;;;;;;4938855;29;20462;-76
2022/03/17 00:48:32;;;;;;;1.17;1.07;;;7.10;99.90;;;;;;4938637;29;20494;-76
2022/03/17 00:50:58;;;;;;;0.70;0.70;;;7.10;99.90;;;;;;4938710;29;20466;-76
2022/03/17 00:53:25;;;;;;;1.23;0.60;;;7.10;99.90;;;;;;4938665;29;20451;-76
2022/03/17 00:55:52;;;;;;;0.90;0.80;;;7.10;99.90;;;;;;4938602;29;20451;-76
2022/03/17 00:58:18;;;;;;;0.53;0.53;;;7.20;99.90;;;;;;4938489;29;20459;-76
2022/03/17 01:00:46;;;;;;;1.10;1.10;;;7.20;99.90;;;;;;4938546;29;20481;-76
2022/03/17 01:03:13;;;;;;;0.40;0.40;;;7.20;99.90;;;;;;4938490;29;20451;-76
2022/03/17 01:05:41;;;;;;;1.10;1.00;;;7.20;99.90;;;;;;4938162;29;20900;-76
2022/03/17 01:08:08;;;;;;;1.20;1.00;;;7.30;99.90;;;;;;4938276;29;20487;-76
2022/03/17 01:10:35;;;;;;;4.10;1.23;;;7.30;99.90;;;;;;4938349;29;20459;-77
2022/03/17 01:13:03;;;;;;;0.90;0.90;;;7.30;99.90;;;;;;4938299;29;20447;-76
2022/03/17 01:15:30;;;;;;;0.90;0.90;;;7.30;99.90;;;;;;4938251;29;20466;-76
2022/03/17 01:17:58;;;;;;;0.40;0.40;;;7.30;99.90;;;;;;4937881;29;21038;-76
2022/03/17 01:20:25;;;;;;;1.33;0.90;;;7.30;99.90;;;;;;4938171;29;20455;-77
2022/03/17 01:22:52;;;;;;;1.83;1.20;;;7.30;99.90;;;;;;4938136;29;20451;-76
2022/03/17 01:25:19;;;;;;;0.70;0.50;;;7.30;99.90;;;;;;4938063;29;20447;-76
2022/03/17 01:27:45;;;;;;;3.30;0.50;;;7.30;99.90;;;;;;4937912;29;20499;-76
2022/03/17 01:30:13;;;;;;;0.70;0.70;;;7.30;99.90;;;;;;4937985;29;20458;-76
2022/03/17 01:32:40;;;;;;;0.63;0.50;;;7.30;99.90;;;;;;4937619;29;20487;-76
2022/03/17 01:35:09;;;;;;;0.90;0.90;;;7.30;99.90;;;;;;4937909;29;20455;-76
2022/03/17 01:37:36;;;;;;;1.40;0.70;;;7.20;99.90;;;;;;4937794;29;20474;-76
2022/03/17 01:40:04;;;;;;;0.97;0.80;;;7.20;99.90;;;;;;4937848;29;20451;-76
2022/03/17 01:42:31;;;;;;;1.63;0.70;;;7.10;99.90;;;;;;4937810;29;20458;-76
2022/03/17 01:44:57;;;;;;;1.70;1.60;;;7.10;99.90;;;;;;4937732;29;20447;-76
2022/03/17 01:47:31;;;;;;;1.90;0.60;;;7.00;99.90;;;;;;4937528;29;20443;-76
2022/03/17 01:50:00;;;;;;;0.60;0.50;;;7.00;99.90;;;;;;4937686;29;20451;-77
2022/03/17 01:52:29;;;;;;;1.90;1.43;;;7.00;99.90;;;;;;4937580;29;20458;-77
2022/03/17 01:54:56;;;;;;;0.53;0.53;;;7.00;99.90;;;;;;4937230;29;20974;-76
2022/03/17 01:57:23;;;;;;;1.67;0.93;;;7.00;99.90;;;;;;4937494;29;20447;-76
2022/03/17 01:59:52;;;;;;;1.37;0.80;;;7.00;99.90;;;;;;4937184;29;20986;-77
2022/03/17 02:02:19;;;;;;;0.60;0.60;;;7.00;99.90;;;;;;4937392;29;20455;-76
2022/03/17 02:04:47;;;;;;;1.13;0.97;;;7.10;99.90;;;;;;4937353;29;20478;-76
2022/03/17 02:07:14;;;;;;;3.70;1.03;;;7.10;99.90;;;;;;4937653;29;20821;-76
2022/03/17 02:09:44;;;;;;;0.50;0.50;;;7.10;99.90;;;;;;4937144;29;20510;-76
2022/03/17 02:14:58;;;;;;;1.37;1.37;;;7.20;99.90;;;;;;4937049;29;20463;-77
2022/03/17 02:17:25;;;;;;;1.53;0.73;;;7.20;99.90;;;;;;4937095;29;20549;-77
2022/03/17 02:19:52;;;;;;;0.70;0.70;;;7.20;99.90;;;;;;4937108;29;20458;-76
2022/03/17 02:22:21;;;;;;;1.07;0.40;;;7.20;99.90;;;;;;4937011;29;20458;-77
2022/03/17 02:27:49;;;;;;;1.00;0.97;;;7.20;99.90;;;;;;4859914;29;21086;-77
2022/03/17 02:30:19;;;;;;;0.40;0.40;;;7.20;99.90;;;;;;4859607;29;20457;-76
2022/03/17 02:32:46;;;;;;;2.50;0.90;;;7.20;99.90;;;;;;4894340;29;20487;-77
2022/03/17 02:35:14;;;;;;;0.40;0.40;;;7.20;99.90;;;;;;4936850;29;20451;-77
2022/03/17 02:37:41;;;;;;;6.43;0.80;;;7.20;99.90;;;;;;4936690;29;20479;-78
2022/03/17 02:40:12;;;;;;;4.20;0.73;;;7.20;99.90;;;;;;4936436;29;20990;-77
2022/03/17 02:42:39;;;;;;;0.77;0.77;;;7.30;99.90;;;;;;4936447;29;20911;-77
2022/03/17 02:45:08;;;;;;;0.60;0.60;;;7.30;99.90;;;;;;4936205;29;20458;-77
2022/03/17 02:47:36;;;;;;;0.60;0.60;;;7.30;99.90;;;;;;4936546;29;20459;-77
2022/03/17 02:50:02;;;;;;;0.37;0.37;;;7.20;99.90;;;;;;4936607;29;20502;-77
2022/03/17 02:52:29;;;;;;;0.60;0.60;;;7.30;99.90;;;;;;4936561;29;20443;-78
2022/03/17 02:54:57;;;;;;;0.50;0.43;;;7.30;99.90;;;;;;4937369;29;20531;-77
2022/03/17 02:57:25;;;;;;;0.43;0.40;;;7.30;99.90;;;;;;4936404;29;20447;-76
2022/03/17 02:59:52;;;;;;;1.00;1.00;;;7.30;99.90;;;;;;4936452;29;20450;-77
2022/03/17 03:02:19;;;;;;;1.03;1.03;;;7.30;99.90;;;;;;4936151;29;20963;-77
2022/03/17 03:04:46;;;;;;;1.00;1.00;;;7.30;99.90;;;;;;4936054;29;20955;-77
2022/03/17 03:07:13;;;;;;;2.20;0.60;;;7.30;99.90;;;;;;4936373;29;20455;-77
2022/03/17 03:09:40;;;;;;;2.30;0.90;;;7.30;99.90;;;;;;4935949;29;20518;-76
2022/03/17 03:12:09;;;;;;;0.60;0.60;;;7.30;99.90;;;;;;4936320;29;20462;-77
2022/03/17 03:14:37;;;;;;;4.30;1.60;;;7.30;99.90;;;;;;4936453;29;20458;-76
2022/03/17 03:17:04;;;;;;;0.83;0.83;;;7.30;99.90;;;;;;4936224;29;20965;-76
2022/03/17 03:19:31;;;;;;;0.50;0.50;;;7.30;99.90;;;;;;4936118;29;20882;-76
2022/03/17 03:21:58;;;;;;;2.60;1.33;;;7.30;99.90;;;;;;4935892;29;20972;-75
2022/03/17 03:24:25;;;;;;;1.27;1.17;;;7.30;99.90;;;;;;4936017;29;20455;-75
2022/03/17 03:26:52;;;;;;;1.10;1.00;;;7.30;99.90;;;;;;4935998;29;20462;-76
2022/03/17 03:29:22;;;;;;;0.93;0.70;;;7.30;99.90;;;;;;4935836;29;20497;-76
2022/03/17 03:31:50;;;;;;;1.23;0.87;;;7.30;99.90;;;;;;4935875;29;20483;-75
2022/03/17 03:34:17;;;;;;;2.07;1.03;;;7.30;99.90;;;;;;4936089;29;20439;-76
2022/03/17 03:39:29;;;;;;;2.27;2.00;;;7.40;99.90;;;;;;4935700;29;20443;-76
2022/03/17 03:41:55;;;;;;;0.90;0.70;;;7.40;99.90;;;;;;4935876;29;20458;-76
2022/03/17 03:44:22;;;;;;;1.70;1.60;;;7.40;99.90;;;;;;4935870;29;20464;-76
2022/03/17 03:46:50;;;;;;;0.87;0.80;;;7.40;99.90;;;;;;4936729;29;20458;-76
2022/03/17 03:49:18;;;;;;;1.00;0.50;;;7.40;99.90;;;;;;4936616;29;20513;-76
2022/03/17 03:51:45;;;;;;;4.03;1.37;;;7.40;99.90;;;;;;4935883;29;20463;-76
2022/03/17 03:54:15;;;;;;;0.80;0.80;;;7.40;99.90;;;;;;4935860;29;20793;-76
2022/03/17 03:56:43;;;;;;;1.80;0.87;;;7.40;99.90;;;;;;4935934;29;20848;-76
2022/03/17 03:59:09;;;;;;;0.67;0.67;;;7.40;99.90;;;;;;4939563;29;20510;-76
2022/03/17 04:01:36;;;;;;;1.27;1.00;;;7.40;99.90;;;;;;4939710;29;20450;-76
2022/03/17 04:04:05;;;;;;;1.70;1.60;;;7.40;99.90;;;;;;4939529;29;20459;-76
2022/03/17 04:06:33;;;;;;;5.70;1.13;;;7.40;99.90;;;;;;4939204;29;20451;-76
2022/03/17 04:08:59;;;;;;;0.40;0.40;;;7.40;99.90;;;;;;4939358;29;20487;-76
2022/03/17 04:11:26;;;;;;;1.63;1.20;;;7.40;99.90;;;;;;4939456;29;20819;-76
2022/03/17 04:13:53;;;;;;;1.33;1.23;;;7.40;99.90;;;;;;4939394;29;20451;-76
2022/03/17 04:16:20;;;;;;;0.80;0.60;;;7.40;99.90;;;;;;4939037;29;20843;-76
2022/03/17 04:18:46;;;;;;;0.60;0.57;;;7.40;99.90;;;;;;4938954;29;20975;-76
2022/03/17 04:21:14;;;;;;;0.60;0.60;;;7.40;99.90;;;;;;4939258;29;20459;-76
2022/03/17 04:23:41;;;;;;;7.00;0.80;;;7.40;99.90;;;;;;4939233;29;20459;-76
2022/03/17 04:26:08;;;;;;;3.70;0.67;;;7.40;99.90;;;;;;4939186;29;20458;-76
2022/03/17 04:28:35;;;;;;;2.50;1.07;;;7.40;99.90;;;;;;4938996;29;20494;-76
2022/03/17 04:31:01;;;;;;;1.70;0.73;;;7.40;99.90;;;;;;4938945;29;20458;-76
2022/03/17 04:33:28;;;;;;;1.40;1.17;;;7.40;99.90;;;;;;4938567;29;21013;-76
2022/03/17 04:35:55;;;;;;;0.70;0.70;;;7.40;99.90;;;;;;4938999;29;20451;-76
2022/03/17 04:38:23;;;;;;;0.60;0.60;;;7.40;99.90;;;;;;4938950;29;20920;-76
2022/03/17 04:40:50;;;;;;;6.10;1.60;;;7.40;99.90;;;;;;4938900;29;20561;-76
2022/03/17 04:43:18;;;;;;;2.10;1.93;;;7.40;99.90;;;;;;4938617;29;21063;-76
2022/03/17 04:45:46;;;;;;;0.50;0.50;;;7.40;99.90;;;;;;4938565;29;20994;-76
2022/03/17 04:48:13;;;;;;;1.17;0.87;;;7.40;99.90;;;;;;4938763;29;20475;-76
2022/03/17 04:50:40;;;;;;;0.67;0.67;;;7.40;99.90;;;;;;4938740;29;20447;-76
2022/03/17 04:55:52;;;;;;;0.70;0.70;;;7.40;99.90;;;;;;4938773;29;20483;-77
2022/03/17 04:58:19;;;;;;;4.83;1.10;;;7.40;99.90;;;;;;4938183;29;21006;-75
2022/03/17 05:00:46;;;;;;;0.90;0.70;;;7.40;99.90;;;;;;4938566;29;20861;-76
2022/03/17 05:03:14;;;;;;;1.70;1.50;;;7.40;99.90;;;;;;4938567;29;20487;-76
2022/03/17 05:05:41;;;;;;;0.80;0.80;;;7.40;99.90;;;;;;4938555;29;20455;-75
2022/03/17 05:08:08;;;;;;;0.43;0.43;;;7.40;99.90;;;;;;4937973;29;20517;-75
2022/03/17 05:10:36;;;;;;;5.40;1.17;;;7.40;99.90;;;;;;4938295;29;20494;-75
2022/03/17 05:13:06;;;;;;;0.70;0.70;;;7.40;99.90;;;;;;4938067;29;20483;-76
2022/03/17 05:15:34;;;;;;;1.53;1.00;;;7.40;99.90;;;;;;4938280;29;20478;-75
2022/03/17 05:18:01;;;;;;;3.27;0.93;;;7.40;99.90;;;;;;4938182;29;20552;-76
2022/03/17 05:20:28;;;;;;;0.60;0.60;;;7.40;99.90;;;;;;4938302;29;20455;-77
2022/03/17 05:22:55;;;;;;;0.97;0.70;;;7.30;99.90;;;;;;4938154;29;20853;-75
2022/03/17 05:25:22;;;;;;;4.67;2.37;;;7.30;99.90;;;;;;4938062;29;20447;-75
2022/03/17 05:27:49;;;;;;;1.20;0.80;;;7.30;99.90;;;;;;4938038;29;20471;-75
2022/03/17 05:30:20;;;;;;;3.13;0.93;;;7.30;99.90;;;;;;4937923;29;20538;-75
2022/03/17 05:32:48;;;;;;;1.57;1.20;;;7.30;99.90;;;;;;4937701;29;20562;-77
2022/03/17 05:35:16;;;;;;;2.00;0.63;;;7.20;99.90;;;;;;4937668;29;20451;-75
2022/03/17 05:37:44;;;;;;;0.67;0.67;;;7.20;99.90;;;;;;4937833;29;20596;-78
2022/03/17 05:40:15;;;;;;;0.47;0.47;;;7.20;99.90;;;;;;4937822;29;20443;-75
2022/03/17 05:42:43;;;;;;;2.13;2.03;;;7.20;99.90;;;;;;4938058;29;20443;-76
2022/03/17 05:45:10;;;;;;;9.40;0.87;;;7.20;99.90;;;;;;4937716;29;20455;-76
2022/03/17 05:47:40;;;;;;;1.20;0.87;;;7.20;99.90;;;;;;4937636;29;20455;-75
2022/03/17 05:50:09;;;;;;;0.40;0.40;;;7.20;99.90;;;;;;4937907;29;20490;-76
2022/03/17 05:52:36;;;;;;;0.70;0.70;;;7.20;99.90;;;;;;4937235;29;20463;-75
2022/03/17 05:55:03;;;;;;;4.30;1.60;;;7.10;99.90;;;;;;4937564;29;20461;-76
2022/03/17 05:57:29;;;;;;;1.63;0.83;;;7.20;99.90;;;;;;4937404;29;20458;-75
2022/03/17 05:59:56;;;;;;;2.67;2.33;;;7.20;99.90;;;;;;4937455;29;20458;-78
2022/03/17 06:02:23;;;;;;;2.10;0.83;;;7.30;99.90;;;;;;4937439;29;20446;-76
2022/03/17 06:04:51;;;;;;;1.43;1.33;;;7.20;99.90;;;;;;4937412;29;20459;-75
2022/03/17 06:07:18;;;;;;;3.90;1.30;;;7.20;99.90;;;;;;4937336;29;20451;-75
2022/03/17 06:09:44;;;;;;;1.40;0.60;;;7.30;99.90;;;;;;4936922;29;20870;-75
2022/03/17 06:12:11;;;;;;;1.07;0.47;;;7.30;99.90;;;;;;4936943;29;20458;-75
2022/03/17 06:14:38;;;;;;;2.73;1.93;;;7.30;99.90;;;;;;4937214;29;20458;-76
2022/03/17 06:17:05;;;;;;;1.47;0.60;;;7.30;99.90;;;;;;4937196;29;20447;-76
2022/03/17 06:19:31;;;;;;;4.90;1.43;;;7.40;99.90;;;;;;4936526;29;20835;-76
2022/03/17 06:22:00;;;;;;;5.73;2.20;;;7.40;99.90;;;;;;4936865;29;20461;-77
2022/03/17 06:24:26;;;;;;;1.77;0.50;;;7.40;99.90;;;;;;4937027;29;20450;-76
2022/03/17 06:26:53;;;;;;;2.30;1.43;;;7.50;99.90;;;;;;4936988;29;20462;-76
2022/03/17 06:29:20;;;;;;;1.23;0.60;;;7.50;99.90;;;;;;4936505;29;20498;-77
2022/03/17 06:31:46;;;;;;;1.20;0.77;;;7.50;99.90;;;;;;4936634;29;20479;-76
2022/03/17 06:34:13;;;;;;;1.13;0.83;;;7.40;99.90;;;;;;4936580;29;20946;-76
2022/03/17 06:36:40;;;;;;;1.20;1.10;;;7.50;99.90;;;;;;4936806;29;20510;-76
2022/03/17 06:39:08;;;;;;;5.33;0.90;;;7.50;99.90;;;;;;4936413;29;21062;-76
2022/03/17 06:41:35;;;;;;;2.10;0.90;;;7.60;99.90;;;;;;4936722;29;20451;-77
2022/03/17 06:44:01;;;;;;;1.17;1.03;;;7.60;99.90;;;;;;4936662;29;20455;-76
2022/03/17 06:46:29;;;;;;;1.00;0.97;;;7.60;99.90;;;;;;4936624;29;20458;-76
2022/03/17 06:48:56;;;;;;;3.37;1.00;;;7.70;99.90;;;;;;4936442;29;20482;-76
2022/03/17 06:51:23;;;;;;;2.40;1.63;;;7.70;99.90;;;;;;4936566;29;20568;-76
2022/03/17 06:53:49;;;;;;;1.13;0.90;;;7.70;99.90;;;;;;4936539;29;20806;-76
2022/03/17 06:56:17;;;;;;;1.67;1.47;;;7.80;99.90;;;;;;4936508;29;20458;-76
2022/03/17 06:58:44;;;;;;;1.83;1.83;;;7.80;99.90;;;;;;4936094;29;20469;-76
2022/03/17 07:01:11;;;;;;;0.80;0.77;;;7.80;99.90;;;;;;4936418;29;20502;-76
2022/03/17 07:03:37;;;;;;;1.40;1.30;;;7.90;99.90;;;;;;4936168;29;20436;-76
2022/03/17 07:06:04;;;;;;;2.00;1.90;;;7.90;99.90;;;;;;4936029;29;20966;-76
2022/03/17 07:08:31;;;;;;;1.00;1.00;;;7.90;99.90;;;;;;4936254;29;20482;-75
2022/03/17 07:10:58;;;;;;;1.10;0.90;;;7.90;99.90;;;;;;4936226;29;20498;-76
2022/03/17 07:13:26;;;;;;;3.23;1.77;;;7.90;99.90;;;;;;4936253;29;20464;-76
2022/03/17 07:15:52;;;;;;;8.67;1.13;;;8.00;99.90;;;;;;4935922;29;20455;-76
2022/03/17 07:18:19;;;;;;;1.07;0.70;;;8.00;99.90;;;;;;4936121;29;20479;-76
2022/03/17 07:20:46;;;;;;;3.47;1.73;;;8.00;99.90;;;;;;4935909;29;20962;-76
2022/03/17 07:23:12;;;;;;;0.50;0.50;;;8.00;99.90;;;;;;4936410;29;20444;-76
2022/03/17 07:25:39;;;;;;;2.57;2.37;;;8.10;99.90;;;;;;4936048;29;20451;-76
2022/03/17 07:28:06;;;;;;;2.03;1.93;;;8.10;99.90;;;;;;4936050;29;20475;-76
2022/03/17 07:30:34;;;;;;;4.80;1.50;;;8.20;99.90;;;;;;4936020;29;20479;-76
2022/03/17 07:33:01;;;;;;;2.97;0.90;;;8.20;99.90;;;;;;4942045;29;20490;-75
2022/03/17 07:35:29;;;;;;;1.00;0.90;;;8.30;99.90;;;;;;4942346;29;20486;-76
2022/03/17 07:37:58;;;;;;;1.43;0.67;;;8.30;99.90;;;;;;4942362;29;20478;-76
2022/03/17 07:40:25;;;;;;;0.77;0.63;;;8.40;99.90;;;;;;4942422;29;20474;-76
2022/03/17 07:42:52;;;;;;;4.20;1.30;;;8.40;99.90;;;;;;4942408;29;20450;-77
2022/03/17 07:45:19;;;;;;;2.23;1.23;;;8.50;99.90;;;;;;4942346;29;20461;-76
2022/03/17 07:47:48;;;;;;;2.13;0.80;;;8.50;99.90;;;;;;4942227;29;20471;-76
2022/03/17 07:50:16;;;;;;;1.00;1.00;;;8.50;99.90;;;;;;4942178;29;20497;-76
2022/03/17 07:52:43;;;;;;;2.20;1.20;;;8.40;99.90;;;;;;4942282;29;20453;-76
2022/03/17 07:55:10;;;;;;;2.30;1.67;;;8.50;99.90;;;;;;4942379;29;20455;-76
2022/03/17 07:57:38;;;;;;;0.80;0.80;;;8.50;99.90;;;;;;4942167;29;20458;-76
2022/03/17 08:00:08;;;;;;;2.77;1.37;;;8.50;99.90;;;;;;4941893;29;20849;-77
2022/03/17 08:02:35;;;;;;;2.10;0.93;;;8.60;99.90;;;;;;4942263;29;20442;-77
2022/03/17 08:05:04;;;;;;;0.70;0.70;;;8.60;99.90;;;;;;4942196;29;20458;-76
2022/03/17 08:07:32;;;;;;;1.03;1.03;;;8.60;99.90;;;;;;4941806;29;20823;-76
2022/03/17 08:09:59;;;;;;;1.10;0.60;;;8.70;99.90;;;;;;4942084;29;20577;-75
2022/03/17 08:12:26;;;;;;;1.20;1.00;;;8.70;99.90;;;;;;4942157;29;20451;-76
2022/03/17 08:14:53;;;;;;;0.73;0.60;;;8.80;99.90;;;;;;4942106;29;20455;-76
2022/03/17 08:17:20;;;;;;;1.80;1.37;;;8.80;99.90;;;;;;4941998;29;20450;-75
2022/03/17 08:19:47;;;;;;;2.07;0.77;;;8.80;99.90;;;;;;4942084;29;20454;-76
2022/03/17 08:22:15;;;;;;;2.53;1.40;;;8.80;99.90;;;;;;4942024;29;20450;-76
2022/03/17 08:24:42;;;;;;;2.93;0.70;;;8.80;99.90;;;;;;4942019;29;20482;-76
2022/03/17 08:27:08;;;;;;;0.77;0.77;;;8.80;99.90;;;;;;4942029;29;20816;-76
2022/03/17 08:29:35;;;;;;;4.23;0.70;;;8.90;99.90;;;;;;4941834;29;20477;-76
2022/03/17 08:32:04;;;;;;;6.00;1.20;;;8.90;99.90;;;;;;4941692;29;20487;-76
2022/03/17 08:34:32;;;;;;;2.83;1.63;;;8.90;99.90;;;;;;4941962;29;20921;-76
2022/03/17 08:36:59;;;;;;;1.83;0.77;;;8.90;99.90;;;;;;4941910;29;20462;-76
2022/03/17 08:39:28;;;;;;;0.73;0.73;;;8.90;99.90;;;;;;4941868;29;20482;-76
2022/03/17 08:41:56;;;;;;;0.40;0.40;;;8.90;99.90;;;;;;4941914;29;20797;-76
2022/03/17 08:44:23;;;;;;;1.50;0.87;;;9.00;99.90;;;;;;4938007;29;20514;-75
2022/03/17 08:49:34;;;;;;;0.90;0.40;;;9.00;99.90;;;;;;4938738;29;20445;-76
2022/03/17 08:52:03;;;;;;;15.83;1.80;;;9.10;99.90;;;;;;4938784;29;20431;-76
2022/03/17 08:54:33;;;;;;;5.43;2.00;;;9.10;99.90;;;;;;4938593;29;20459;-76
2022/03/17 08:57:01;;;;;;;2.63;0.97;;;9.10;99.90;;;;;;4938204;29;20455;-76
2022/03/17 08:59:30;;;;;;;1.47;1.00;;;9.20;99.90;;;;;;4938481;29;20474;-76
2022/03/17 09:01:57;;;;;;;1.13;1.03;;;9.20;99.90;;;;;;4938606;29;20470;-75
2022/03/17 09:04:23;;;;;;;3.90;1.30;;;9.30;99.90;;;;;;4938463;29;20791;-76
2022/03/17 09:06:50;;;;;;;2.37;1.50;;;9.30;99.90;;;;;;4938276;29;20458;-76
2022/03/17 09:09:17;;;;;;;3.50;1.00;;;9.40;99.90;;;;;;4938250;29;20470;-75
2022/03/17 09:11:45;;;;;;;1.13;1.00;;;9.40;99.90;;;;;;4938204;29;20530;-76
2022/03/17 09:14:13;;;;;;;1.37;0.60;;;9.50;99.90;;;;;;4938005;29;20501;-76
2022/03/17 09:16:40;;;;;;;6.23;3.20;;;9.50;99.90;;;;;;4938025;29;20966;-76
2022/03/17 09:19:07;;;;;;;6.10;1.13;;;9.50;99.90;;;;;;4937920;29;21024;-76
2022/03/17 09:21:35;;;;;;;0.83;0.83;;;9.60;99.90;;;;;;4938181;29;20454;-76
2022/03/17 09:24:03;;;;;;;2.60;0.80;;;9.60;99.90;;;;;;4938151;29;20459;-76
2022/03/17 09:26:30;;;;;;;0.60;0.60;;;9.70;99.90;;;;;;4938136;29;20455;-76
2022/03/17 09:28:58;;;;;;;2.47;1.57;;;9.70;99.90;;;;;;4937946;29;20482;-76
2022/03/17 09:31:25;;;;;;;1.70;1.60;;;9.80;99.90;;;;;;4937922;29;20509;-76
2022/03/17 09:33:52;;;;;;;1.10;1.00;;;9.90;99.90;;;;;;4937498;29;20819;-76
2022/03/17 09:36:19;;;;;;;1.60;1.50;;;9.90;99.90;;;;;;4937651;29;20966;-76
2022/03/17 09:39:39;;;;;;;1.57;1.47;;;10.00;99.90;;;;;;4937838;29;20477;-76
2022/03/17 09:41:36;;;;;;;7.53;2.40;;;9.90;99.90;;;;;;4937387;29;20542;-76
2022/03/17 09:44:05;;;;;;;2.17;1.60;;;10.00;99.90;;;;;;4937488;29;20947;-76
2022/03/17 09:46:34;;;;;;;2.40;1.83;;;10.00;99.90;;;;;;4937758;29;20459;-76
2022/03/17 09:49:02;;;;;;;2.50;1.13;;;10.10;99.90;;;;;;4937662;29;20809;-76
2022/03/17 09:51:29;;;;;;;1.60;1.37;;;10.10;99.90;;;;;;4937235;29;20899;-76
2022/03/17 09:54:00;;;;;;;0.90;0.77;;;10.10;99.90;;;;;;4937293;29;20873;-75
2022/03/17 09:56:28;;;;;;;4.23;1.30;;;10.20;99.90;;;;;;4936762;29;20526;-76
2022/03/17 09:58:56;;;;;;;4.83;1.13;;;10.20;99.90;;;;;;4937258;29;20471;-76
2022/03/17 10:01:26;;;;;;;2.47;1.43;;;10.20;99.90;;;;;;4937335;29;20448;-76
2022/03/17 10:03:58;;;;;;;1.70;0.80;;;10.20;99.90;;;;;;4937779;29;20816;-76
2022/03/17 10:06:25;;;;;;;1.90;0.70;;;10.30;99.90;;;;;;4936952;29;20443;-76
2022/03/17 10:08:52;;;;;;;2.50;0.80;;;10.30;99.90;;;;;;4936938;29;20474;-76
2022/03/17 10:11:25;;;;;;;2.50;1.73;;;10.40;99.90;;;;;;4937220;29;20493;-76
2022/03/17 10:13:54;;;;;;;0.90;0.80;;;10.50;99.90;;;;;;4937282;29;20443;-76
2022/03/17 10:16:21;;;;;;;1.10;1.10;;;10.50;99.90;;;;;;4937227;29;20439;-76
2022/03/17 10:18:57;;;;;;;0.57;0.57;;;10.60;99.90;;;;;;4937173;29;20814;-76
2022/03/17 10:21:25;;;;;;;1.67;0.83;;;10.60;99.90;;;;;;4937410;29;20420;-76
2022/03/17 10:23:54;;;;;;;2.10;0.93;;;10.70;99.90;;;;;;4937091;29;20440;-76
2022/03/17 10:26:41;;;;;;;2.43;1.33;;;10.70;99.90;;;;;;4937068;29;20478;-76
2022/03/17 10:29:10;;;;;;;2.10;1.57;;;10.80;99.90;;;;;;4936935;29;20471;-76
2022/03/17 10:31:54;;;;;;;2.80;1.27;;;10.80;99.90;;;;;;4936566;29;20523;-76
2022/03/17 10:34:24;;;;;;;2.00;1.00;;;10.90;99.90;;;;;;4936606;29;20444;-76
2022/03/17 10:36:50;;;;;;;3.93;1.70;;;11.00;99.90;;;;;;4936887;29;20427;-75
2022/03/17 10:39:18;;;;;;;1.30;1.20;;;11.10;99.90;;;;;;4936522;29;20471;-76
2022/03/17 10:41:46;;;;;;;2.60;0.87;;;11.30;99.90;;;;;;4936767;29;20461;-75
2022/03/17 10:44:15;;;;;;;4.90;1.17;;;11.50;99.90;;;;;;4936421;29;20934;-76
2022/03/17 10:46:55;;;;;;;2.20;1.23;;;11.50;99.90;;;;;;4936697;29;20452;-75
2022/03/17 10:49:24;;;;;;;3.50;1.87;;;11.50;99.90;;;;;;4936613;29;20467;-76
2022/03/17 10:51:55;;;;;;;0.90;0.70;;;11.50;99.90;;;;;;4936517;29;20834;-78
2022/03/17 10:54:23;;;;;;;1.13;1.03;;;11.50;99.90;;;;;;4936701;29;20439;-78
2022/03/17 10:56:59;;;;;;;3.27;2.10;;;11.70;99.90;;;;;;4936583;29;20450;-75
2022/03/17 10:59:38;;;;;;;10.10;2.83;;;11.70;99.90;;;;;;4936403;29;20832;-76
2022/03/17 11:02:08;;;;;;;2.97;1.50;;;11.60;99.90;;;;;;4936521;29;20463;-76
2022/03/17 11:04:37;;;;;;;1.27;1.27;;;11.50;99.90;;;;;;4936459;29;20447;-76
2022/03/17 11:07:08;;;;;;;2.60;1.30;;;11.50;99.90;;;;;;4936082;29;20447;-76
2022/03/17 11:09:38;;;;;;;2.70;0.70;;;11.50;99.90;;;;;;4936349;29;20773;-76
2022/03/17 11:12:07;;;;;;;2.83;1.60;;;11.60;99.90;;;;;;4936275;29;20479;-76
2022/03/17 11:14:34;;;;;;;1.77;0.97;;;11.50;99.90;;;;;;4936324;29;20438;-76
2022/03/17 11:17:04;;;;;;;1.73;1.00;;;11.60;99.90;;;;;;4936319;29;20566;-75
2022/03/17 11:19:32;;;;;;;5.93;2.03;;;11.60;99.90;;;;;;4935900;29;20471;-76
2022/03/17 11:22:09;;;;;;;3.63;1.03;;;11.60;99.90;;;;;;4936216;29;20439;-76
2022/03/17 11:24:37;;;;;;;7.63;1.73;;;11.50;99.90;;;;;;4935945;29;20935;-76
2022/03/17 11:27:10;;;;;;;4.13;2.17;;;11.50;99.90;;;;;;4936221;29;20467;-76
2022/03/17 11:29:42;;;;;;;3.43;1.40;;;11.60;99.90;;;;;;4936106;29;20467;-76
2022/03/17 11:32:24;;;;;;;1.90;1.80;;;11.50;99.90;;;;;;4935833;29;20982;-76
2022/03/17 11:35:04;;;;;;;5.53;1.70;;;11.50;99.90;;;;;;4936135;29;20439;-76
2022/03/17 11:37:33;;;;;;;7.67;1.80;;;11.50;99.90;;;;;;4936004;29;20438;-76
2022/03/17 11:40:06;;;;;;;2.33;2.23;;;11.30;99.90;;;;;;4936117;29;20499;-76
2022/03/17 11:42:44;;;;;;;3.03;1.33;;;11.30;99.90;;;;;;4936024;29;20498;-76
2022/03/17 11:45:34;;;;;;;2.40;2.20;;;11.30;99.90;;;;;;4936048;29;20450;-75
2022/03/17 11:48:03;;;;;;;2.90;1.37;;;11.30;99.90;;;;;;4935947;29;20471;-76
2022/03/17 11:50:32;;;;;;;0.83;0.80;;;11.30;99.90;;;;;;4935994;29;20475;-76
2022/03/17 11:53:01;;;;;;;6.43;1.30;;;11.30;99.90;;;;;;4935917;29;20439;-76
2022/03/17 11:55:32;;;;;;;1.90;1.80;;;11.30;99.90;;;;;;4935967;29;20443;-76
2022/03/17 11:58:24;;;;;;;6.33;2.13;;;11.20;99.90;;;;;;4935883;29;20477;-76
2022/03/17 12:00:53;;;;;;;3.40;3.10;;;11.20;99.90;;;;;;4935580;29;20931;-76
2022/03/17 12:03:29;;;;;;;4.50;1.07;;;11.20;99.90;;;;;;4935940;29;20795;-76
2022/03/17 12:06:13;;;;;;;3.73;0.77;;;11.30;99.90;;;;;;4935860;29;20431;-76
2022/03/17 12:08:49;;;;;;;3.90;0.80;;;11.30;99.90;;;;;;4935815;29;20474;-76
2022/03/17 12:11:17;;;;;;;1.43;1.20;;;11.20;99.90;;;;;;4935676;29;20474;-76
2022/03/17 12:14:24;;;;;;;1.47;1.03;;;11.30;99.90;;;;;;4935767;29;20450;-76
2022/03/17 12:16:53;;;;;;;2.73;1.20;;;11.20;99.90;;;;;;4935537;29;20439;-77
2022/03/17 12:19:48;;;;;;;2.30;1.47;;;11.30;99.90;;;;;;4938178;29;20569;-76
2022/03/17 12:22:17;;;;;;;2.20;1.13;;;11.40;99.90;;;;;;4939345;29;20427;-76
2022/03/17 12:24:50;;;;;;;1.63;1.37;;;11.30;99.90;;;;;;4939294;29;20442;-76
2022/03/17 12:27:20;;;;;;;13.13;1.77;;;11.30;99.90;;;;;;4938950;29;20946;-76
2022/03/17 12:29:48;;;;;;;3.60;2.07;;;11.50;99.90;;;;;;4939217;29;20432;-76
2022/03/17 12:32:17;;;;;;;4.50;2.17;;;11.50;99.90;;;;;;4939124;29;20849;-76
2022/03/17 12:34:46;;;;;;;7.30;1.90;;;11.40;99.90;;;;;;4938709;29;20458;-76
2022/03/17 12:37:14;;;;;;;0.70;0.70;;;11.40;99.90;;;;;;4939315;29;20943;-76
2022/03/17 12:39:41;;;;;;;3.53;2.20;;;11.40;99.90;;;;;;4938661;29;20482;-76
2022/03/17 12:42:19;;;;;;;4.10;2.13;;;11.20;99.90;;;;;;4938592;29;20911;-76
2022/03/17 12:44:53;;;;;;;5.63;2.63;;;11.30;99.90;;;;;;4938977;29;20455;-78
2022/03/17 12:47:21;;;;;;;9.13;1.83;;;11.20;99.90;;;;;;4938822;29;20435;-76
2022/03/17 12:49:49;;;;;;;8.20;1.80;;;11.20;99.90;;;;;;4938864;29;20443;-77
2022/03/17 12:52:18;;;;;;;1.43;0.90;;;11.10;99.90;;;;;;4939041;29;20470;-76
2022/03/17 12:54:45;;;;;;;3.60;2.13;;;11.20;99.90;;;;;;4938450;29;20495;-76
2022/03/17 12:57:12;;;;;;;2.80;1.33;;;11.30;99.90;;;;;;4938701;29;20463;-76
2022/03/17 12:59:40;;;;;;;2.53;2.40;;;11.30;99.90;;;;;;4938612;29;20467;-76
2022/03/17 13:02:07;;;;;;;3.80;2.00;;;11.30;99.90;;;;;;4938643;29;20431;-76
2022/03/17 13:04:37;;;;;;;2.50;1.60;;;11.30;99.90;;;;;;4938366;29;20443;-76
2022/03/17 13:07:07;;;;;;;1.13;1.00;;;11.30;99.90;;;;;;4938403;29;20487;-76
2022/03/17 13:09:34;;;;;;;2.50;1.50;;;11.30;99.90;;;;;;4938045;29;20463;-76
2022/03/17 13:14:49;;;;;;;2.93;1.73;;;11.30;99.90;;;;;;4938088;29;20419;-76
2022/03/17 13:17:36;;;;;;;2.50;1.77;;;11.40;99.90;;;;;;4938384;29;20447;-76
2022/03/17 13:20:04;;;;;;;3.37;1.33;;;11.40;99.90;;;;;;4938353;29;20796;-76